createdAt,value
2022-11-20T00:01:43.135Z,96475.81
2022-11-20T00:06:47.754Z,96476.56
2022-11-20T00:11:49.715Z,96467.34
2022-11-20T00:16:51.745Z,96467.38
2022-11-20T00:21:56.307Z,96467.38
2022-11-20T00:26:58.079Z,96485.50
2022-11-20T00:32:00.024Z,96486.66
2022-11-20T00:37:03.333Z,96478.19
2022-11-20T00:42:05.381Z,96471.28
2022-11-20T00:47:07.350Z,96464.00
2022-11-20T00:52:10.745Z,96448.94
2022-11-20T00:57:12.726Z,96449.78
2022-11-20T01:02:16.435Z,96460.94
2022-11-20T01:07:19.804Z,96443.22
2022-11-20T01:12:21.961Z,96441.28
2022-11-20T01:17:24.029Z,96449.78
2022-11-20T01:22:27.303Z,96446.69
2022-11-20T01:27:29.236Z,96435.13
2022-11-20T01:32:31.175Z,96436.69
2022-11-20T01:37:34.457Z,96423.56
2022-11-20T01:42:55.120Z,96427.03
2022-11-20T01:47:57.057Z,96422.03
2022-11-20T01:53:04.925Z,96415.84
2022-11-20T01:58:07.236Z,96423.16
2022-11-20T02:03:12.152Z,96425.84
2022-11-20T02:08:16.558Z,96433.16
2022-11-20T02:13:37.072Z,96443.56
2022-11-20T02:18:39.748Z,96432.00
2022-11-20T02:23:55.116Z,96448.50
2022-11-20T02:28:58.067Z,96456.97
2022-11-20T02:34:00.096Z,96463.16
2022-11-20T02:39:03.679Z,96450.06
2022-11-20T02:44:06.473Z,96445.09
2022-11-20T02:49:08.456Z,96447.81
2022-11-20T02:54:11.749Z,96449.75
2022-11-20T02:59:13.779Z,96450.53
2022-11-20T03:04:15.869Z,96447.06
2022-11-20T03:09:19.568Z,96436.28
2022-11-20T03:14:21.799Z,96447.44
2022-11-20T03:19:23.934Z,96448.56
2022-11-20T03:24:27.675Z,96440.91
2022-11-20T03:29:29.901Z,96440.50
2022-11-20T03:34:31.827Z,96445.88
2022-11-20T03:39:35.076Z,96447.81
2022-11-20T03:44:36.996Z,96455.09
2022-11-20T03:49:38.900Z,96450.53
2022-11-20T03:54:42.209Z,96436.28
2022-11-20T03:59:44.184Z,96442.06
2022-11-20T04:04:46.107Z,96439.75
2022-11-20T04:09:49.468Z,96446.31
2022-11-20T04:14:51.374Z,96429.69
2022-11-20T04:19:53.348Z,96426.97
2022-11-20T04:24:56.641Z,96423.84
2022-11-20T04:29:58.569Z,96417.25
2022-11-20T04:35:00.517Z,96420.31
2022-11-20T04:40:04.386Z,96420.72
2022-11-20T04:45:07.175Z,96425.72
2022-11-20T04:50:10.079Z,96421.81
2022-11-20T04:55:13.443Z,96417.94
2022-11-20T05:00:16.584Z,96412.53
2022-11-20T05:05:19.002Z,96404.81
2022-11-20T05:10:22.298Z,96399.44
2022-11-20T05:15:24.216Z,96402.50
2022-11-20T05:20:26.360Z,96396.25
2022-11-20T05:25:29.607Z,96388.56
2022-11-20T05:30:31.598Z,96388.59
2022-11-20T05:35:33.566Z,96392.53
2022-11-20T05:40:37.506Z,96381.41
2022-11-20T05:45:39.447Z,96377.19
2022-11-20T05:50:41.396Z,96380.72
2022-11-20T05:55:44.852Z,96370.28
2022-11-20T06:00:46.774Z,96377.66
2022-11-20T06:05:48.836Z,96377.69
2022-11-20T06:10:52.816Z,96378.88
2022-11-20T06:15:55.077Z,96381.59
2022-11-20T06:21:01.960Z,96363.84
2022-11-20T06:26:06.978Z,96364.66
2022-11-20T06:31:12.180Z,96355.41
2022-11-20T06:36:16.413Z,96351.94
2022-11-20T06:41:21.573Z,96344.22
2022-11-20T06:46:23.585Z,96340.03
2022-11-20T06:51:25.798Z,96339.66
2022-11-20T06:56:29.339Z,96340.38
2022-11-20T07:01:31.283Z,96342.72
2022-11-20T07:06:33.269Z,96351.19
2022-11-20T07:11:36.512Z,96358.09
2022-11-20T07:16:38.483Z,96361.69
2022-11-20T07:21:40.488Z,96354.22
2022-11-20T07:26:46.636Z,96363.53
2022-11-20T07:31:48.567Z,96366.47
2022-11-20T07:36:50.609Z,96381.88
2022-11-20T07:41:53.933Z,96380.22
2022-11-20T07:46:56.008Z,96373.19
2022-11-20T07:52:03.165Z,96377.72
2022-11-20T07:57:07.903Z,96378.03
2022-11-20T08:02:11.018Z,96376.66
2022-11-20T08:07:13.078Z,96376.31
2022-11-20T08:12:39.180Z,96372.94
2022-11-20T08:17:41.160Z,96367.19
2022-11-20T08:22:43.162Z,96376.31
2022-11-20T08:27:46.536Z,96378.59
2022-11-20T08:32:48.504Z,96368.44
2022-11-20T08:37:50.615Z,96365.44
2022-11-20T08:42:53.911Z,96367.41
2022-11-20T08:48:01.143Z,96372.84
2022-11-20T08:53:04.431Z,96371.13
2022-11-20T08:58:07.798Z,96369.56
2022-11-20T09:03:10.105Z,96372.28
2022-11-20T09:08:12.233Z,96376.06
2022-11-20T09:13:15.573Z,96374.50
2022-11-20T09:18:17.509Z,96367.34
2022-11-20T09:23:19.698Z,96360.78
2022-11-20T09:28:23.211Z,96367.59
2022-11-20T09:33:25.119Z,96363.63
2022-11-20T09:38:27.142Z,96365.72
2022-11-20T09:43:43.474Z,96365.72
2022-11-20T09:49:05.005Z,96362.16
2022-11-20T09:54:16.297Z,96363.25
2022-11-20T09:59:33.309Z,96359.94
2022-11-20T10:04:43.719Z,96355.50
2022-11-20T10:09:51.242Z,96344.03
2022-11-20T10:15:15.481Z,96336.38
2022-11-20T10:20:24.962Z,96333.03
2022-11-20T10:25:34.816Z,96336.69
2022-11-20T10:30:43.373Z,96325.75
2022-11-20T10:35:50.068Z,96316.38
2022-11-20T10:41:15.658Z,96303.91
2022-11-20T10:46:23.142Z,96312.00
2022-11-20T10:51:36.691Z,96308.91
2022-11-20T10:56:48.309Z,96317.03
2022-11-20T11:01:53.102Z,96313.09
2022-11-20T11:07:00.121Z,96306.16
2022-11-20T11:12:06.932Z,96298.84
2022-11-20T11:17:22.573Z,96288.91
2022-11-20T11:22:24.620Z,96285.09
2022-11-20T11:27:26.632Z,96298.50
2022-11-20T11:32:30.031Z,96306.34
2022-11-20T11:37:36.631Z,96307.00
2022-11-20T11:42:44.044Z,96311.72
2022-11-20T11:47:49.249Z,96306.69
2022-11-20T11:53:03.105Z,96308.28
2022-11-20T11:58:17.934Z,96299.78
2022-11-20T12:03:25.678Z,96279.66
2022-11-20T12:08:33.421Z,96271.16
2022-11-20T12:13:45.041Z,96266.06
2022-11-20T12:18:49.885Z,96257.53
2022-11-20T12:31:53.896Z,96243.97
2022-11-20T12:37:00.608Z,96232.22
2022-11-20T12:42:39.186Z,96235.59
2022-11-20T12:48:04.021Z,96230.63
2022-11-20T12:53:11.924Z,96225.69
2022-11-20T12:58:21.853Z,96210.09
2022-11-20T13:03:41.552Z,96221.66
2022-11-20T13:08:49.178Z,96201.28
2022-11-20T13:14:06.030Z,96219.44
2022-11-20T13:19:13.120Z,96198.66
2022-11-20T13:24:26.363Z,96198.53
2022-11-20T13:29:29.571Z,96192.38
2022-11-20T13:34:33.453Z,96185.41
2022-11-20T13:39:37.786Z,96184.63
2022-11-20T13:44:43.667Z,96172.56
2022-11-20T13:49:49.134Z,96163.06
2022-11-20T13:55:07.781Z,96154.56
2022-11-20T14:00:13.271Z,96151.66
2022-11-20T14:05:22.401Z,96151.69
2022-11-20T14:10:31.336Z,96173.91
2022-11-20T14:15:36.046Z,96178.75
2022-11-20T14:20:43.394Z,96175.94
2022-11-20T14:25:46.130Z,96163.47
2022-11-20T14:30:49.386Z,96162.38
2022-11-20T14:35:54.789Z,96166.38
2022-11-20T14:41:07.222Z,96153.19
2022-11-20T14:46:11.266Z,96144.25
2022-11-20T14:51:23.915Z,96135.66
2022-11-20T14:56:26.017Z,96150.31
2022-11-20T15:01:29.385Z,96132.72
2022-11-20T15:06:32.795Z,96126.84
2022-11-20T15:11:36.640Z,96108.31
2022-11-20T15:16:40.393Z,96129.44
2022-11-20T15:21:43.709Z,96141.78
2022-11-20T15:26:45.952Z,96129.34
2022-11-20T15:31:47.955Z,96126.16
2022-11-20T15:36:51.273Z,96131.75
2022-11-20T15:41:53.226Z,96116.13
2022-11-20T15:46:55.496Z,96123.00
2022-11-20T15:51:58.779Z,96130.84
2022-11-20T15:57:01.741Z,96119.00
2022-11-20T16:02:03.746Z,96113.50
2022-11-20T16:07:07.186Z,96115.78
2022-11-20T16:12:30.534Z,96126.28
2022-11-20T16:17:43.402Z,96122.69
2022-11-20T16:22:46.731Z,96121.66
2022-11-20T16:27:48.660Z,96133.66
2022-11-20T16:32:50.765Z,96128.53
2022-11-20T16:37:54.089Z,96133.97
2022-11-20T16:42:57.927Z,96132.53
2022-11-20T16:48:00.823Z,96116.16
2022-11-20T16:53:04.083Z,96117.28
2022-11-20T16:58:06.692Z,96124.91
2022-11-20T17:03:09.147Z,96122.44
2022-11-20T17:08:12.497Z,96128.84
2022-11-20T17:13:14.800Z,96139.34
2022-11-20T17:18:16.773Z,96129.75
2022-11-20T17:23:20.025Z,96139.91
2022-11-20T17:28:22.008Z,96134.34
2022-11-20T17:33:24.049Z,96131.84
2022-11-20T17:38:27.558Z,96116.59
2022-11-20T17:43:35.343Z,96124.09
2022-11-20T17:48:38.192Z,96129.47
2022-11-20T17:53:43.615Z,96115.91
2022-11-20T17:58:45.613Z,96111.00
2022-11-20T18:03:47.704Z,96107.63
2022-11-20T18:08:51.737Z,96102.19
2022-11-20T18:14:13.400Z,96103.88
2022-11-20T18:19:18.054Z,96106.19
2022-11-20T18:24:22.181Z,96101.72
2022-11-20T18:29:25.321Z,96094.06
2022-11-20T18:34:27.983Z,96090.38
2022-11-20T18:39:32.419Z,96084.88
2022-11-20T18:44:53.569Z,96094.97
2022-11-20T18:49:57.419Z,96102.09
2022-11-20T18:55:02.490Z,96092.50
2022-11-20T19:00:09.220Z,96085.91
2022-11-20T19:05:12.945Z,96090.66
2022-11-20T19:10:20.066Z,96087.28
2022-11-20T19:15:22.345Z,96074.59
2022-11-20T19:20:24.558Z,96089.03
2022-11-20T19:25:27.869Z,96078.28
2022-11-20T19:30:30.049Z,96070.16
2022-11-20T19:35:32.031Z,96063.56
2022-11-20T19:40:35.366Z,96055.31
2022-11-20T19:45:37.345Z,96040.06
2022-11-20T19:50:39.306Z,96052.91
2022-11-20T20:00:47.689Z,96054.63
2022-11-20T20:05:49.651Z,96055.00
2022-11-20T20:10:56.696Z,96048.22
2022-11-20T20:16:01.422Z,96062.13
2022-11-20T20:21:04.432Z,96048.47
2022-11-20T20:26:09.098Z,96057.22
2022-11-20T20:31:12.987Z,96053.53
2022-11-20T20:36:15.593Z,96056.53
2022-11-20T20:41:21.622Z,96043.28
2022-11-20T20:46:23.912Z,96054.22
2022-11-20T20:51:26.170Z,96067.03
2022-11-20T20:56:29.474Z,96064.66
2022-11-20T21:01:31.486Z,96067.25
2022-11-20T21:06:33.545Z,96057.97
2022-11-20T21:11:36.825Z,96060.28
2022-11-20T21:16:43.739Z,96066.88
2022-11-20T21:22:02.902Z,96061.72
2022-11-20T21:27:06.849Z,96059.06
2022-11-20T21:32:08.621Z,96060.59
2022-11-20T21:37:10.558Z,96060.34
2022-11-20T21:42:14.788Z,96061.72
2022-11-20T21:47:16.751Z,96069.16
2022-11-20T21:52:18.788Z,96072.03
2022-11-20T21:57:22.074Z,96070.00
2022-11-20T22:02:24.034Z,96075.84
2022-11-20T22:07:26.068Z,96091.75
2022-11-20T22:12:29.393Z,96099.56
2022-11-20T22:17:49.827Z,96101.09
2022-11-20T22:22:51.764Z,96106.13
2022-11-20T22:27:55.161Z,96120.69
2022-11-20T22:32:57.088Z,96117.63
2022-11-20T22:37:59.102Z,96114.75
2022-11-20T22:43:02.375Z,96124.09
2022-11-20T22:48:04.937Z,96126.28
2022-11-20T22:53:06.867Z,96129.25
2022-11-20T22:58:10.125Z,96134.22
2022-11-20T23:03:12.101Z,96133.03
2022-11-20T23:08:14.057Z,96131.50
2022-11-20T23:13:17.311Z,96126.69
2022-11-20T23:18:19.353Z,96123.25
2022-11-20T23:23:21.416Z,96115.63
2022-11-20T23:28:24.683Z,96091.84
2022-11-20T23:33:26.798Z,96093.06
2022-11-20T23:38:28.725Z,96095.47
2022-11-20T23:43:32.539Z,96089.69
2022-11-20T23:48:36.515Z,96085.09
2022-11-20T23:53:38.383Z,96080.75
2022-11-20T23:58:42.470Z,96062.31
